Time;durP1;ratioP1;P1;durP2;ratioP2;P2;SDS_P1;SDS_P2;PMS_P1;PMS_P2;Temp;Humidity;BMP_temperature;BMP_pressure;BME280_temperature;BME280_humidity;BME280_pressure;Samples;Min_cycle;Max_cycle;Signal;HPM_P1;HPM_P2
2023/07/26 00:00:16;;;;;;;4.63;2.78;;;;;;;26.08;52.88;98993.03;5071771;28;20052;-66
2023/07/26 00:02:45;;;;;;;4.07;2.67;;;;;;;26.07;53.21;98994.09;5071669;28;20049;-66
2023/07/26 00:05:14;;;;;;;4.10;2.60;;;;;;;26.09;53.10;99007.53;5072008;28;20128;-66
2023/07/26 00:07:42;;;;;;;5.07;2.58;;;;;;;26.05;52.69;99007.09;5071878;28;20052;-67
2023/07/26 00:10:12;;;;;;;4.50;2.70;;;;;;;26.03;52.93;99003.75;5071587;28;20114;-68
2023/07/26 00:12:40;;;;;;;4.82;2.65;;;;;;;26.02;53.19;99013.03;5071600;28;20044;-68
2023/07/26 00:15:09;;;;;;;4.88;2.60;;;;;;;26.02;53.15;99007.56;5071427;28;20059;-66
2023/07/26 00:17:38;;;;;;;5.22;2.65;;;;;;;26.00;53.40;99012.41;5071463;28;20506;-67
2023/07/26 00:20:07;;;;;;;4.38;2.47;;;;;;;25.99;53.51;99010.75;5071671;28;20051;-66
2023/07/26 00:22:36;;;;;;;4.45;2.60;;;;;;;25.98;53.63;98984.50;5071567;28;20498;-66
2023/07/26 00:25:06;;;;;;;5.28;2.72;;;;;;;25.99;53.73;98968.94;5071489;28;20044;-67
2023/07/26 00:27:36;;;;;;;6.90;2.83;;;;;;;25.97;53.43;98980.09;5071419;28;20055;-67
2023/07/26 00:30:05;;;;;;;4.97;2.33;;;;;;;25.96;53.36;98975.66;5071374;28;20056;-67
2023/07/26 00:32:34;;;;;;;3.88;2.30;;;;;;;25.95;53.56;98968.53;5071447;28;20057;-67
2023/07/26 00:35:03;;;;;;;3.83;2.40;;;;;;;25.93;53.62;98963.28;5071482;28;20048;-68
2023/07/26 00:37:31;;;;;;;4.50;2.58;;;;;;;25.93;53.08;98959.72;5071524;28;20114;-67
2023/07/26 00:39:59;;;;;;;4.20;2.10;;;;;;;25.86;53.16;98937.06;5071253;28;20086;-68
2023/07/26 00:42:27;;;;;;;4.43;2.30;;;;;;;25.93;53.62;98935.13;5071197;28;20051;-67
2023/07/26 00:44:57;;;;;;;4.75;2.45;;;;;;;25.93;53.38;98926.94;5071489;28;20124;-67
2023/07/26 00:47:26;;;;;;;4.30;2.30;;;;;;;25.92;53.24;98917.06;5071355;28;20136;-67
2023/07/26 00:49:54;;;;;;;4.22;2.45;;;;;;;25.91;53.10;98901.75;5071295;28;20098;-67
2023/07/26 00:52:25;;;;;;;5.38;2.28;;;;;;;25.89;53.53;98903.88;5071201;28;20078;-67
2023/07/26 00:54:55;;;;;;;6.68;2.85;;;;;;;25.89;53.28;98892.94;5073917;28;20052;-66
2023/07/26 00:57:23;;;;;;;5.15;2.60;;;;;;;25.86;53.53;98887.91;5075362;28;20048;-67
2023/07/26 00:59:52;;;;;;;4.88;2.20;;;;;;;25.86;53.70;98885.19;5075205;28;20068;-67
2023/07/26 01:02:21;;;;;;;4.80;2.20;;;;;;;25.84;53.33;98887.31;5075129;28;20049;-67
2023/07/26 01:04:50;;;;;;;4.50;2.42;;;;;;;25.83;53.68;98888.38;5075198;28;20173;-67
2023/07/26 01:07:24;;;;;;;5.35;2.53;;;;;;;25.82;53.62;98898.47;5074801;28;20504;-67
2023/07/26 01:09:58;;;;;;;4.30;2.50;;;;;;;25.80;53.77;98886.94;5074672;28;20141;-66
2023/07/26 01:12:34;;;;;;;4.55;2.38;;;;;;;25.81;53.91;98885.88;5074845;28;20053;-68
2023/07/26 01:15:08;;;;;;;5.03;2.75;;;;;;;25.80;54.21;98886.94;5074903;28;20504;-67
2023/07/26 01:17:37;;;;;;;4.13;2.47;;;;;;;25.80;54.08;98891.56;5074655;28;20087;-67
2023/07/26 01:20:06;;;;;;;5.45;2.60;;;;;;;25.80;54.24;98875.16;5074524;28;20508;-67
2023/07/26 01:22:36;;;;;;;3.55;2.22;;;;;;;25.79;54.30;98876.22;5075045;28;20473;-67
2023/07/26 01:25:05;;;;;;;5.07;2.45;;;;;;;25.78;54.20;98869.09;5074749;28;20174;-67
2023/07/26 01:27:34;;;;;;;5.30;2.50;;;;;;;25.78;54.44;98860.91;5074691;28;20051;-66
2023/07/26 01:30:02;;;;;;;3.78;2.17;;;;;;;25.76;54.04;98843.88;5074653;28;20048;-67
2023/07/26 01:32:32;;;;;;;5.10;2.70;;;;;;;25.76;54.57;98838.44;5074326;28;20114;-68
2023/07/26 01:35:01;;;;;;;4.78;2.75;;;;;;;25.76;54.38;98833.81;5074265;28;20131;-66
2023/07/26 01:37:29;;;;;;;4.75;2.60;;;;;;;25.74;54.80;98846.00;5074504;28;20048;-67
2023/07/26 01:39:59;;;;;;;4.35;2.38;;;;;;;25.73;54.50;98847.91;5074419;28;20044;-68
2023/07/26 01:42:28;;;;;;;6.53;2.38;;;;;;;25.74;54.73;98846.00;5074314;28;20056;-67
2023/07/26 01:44:56;;;;;;;3.75;2.40;;;;;;;25.73;54.58;98825.22;5074199;28;20087;-67
2023/07/26 01:47:24;;;;;;;4.43;2.63;;;;;;;25.72;54.52;98829.03;5074196;28;20418;-67
2023/07/26 01:49:53;;;;;;;4.20;2.50;;;;;;;25.72;54.63;98826.28;5074360;28;20101;-67
2023/07/26 01:52:21;;;;;;;5.38;2.47;;;;;;;25.71;54.93;98832.81;5074203;28;20048;-67
2023/07/26 01:54:50;;;;;;;4.55;2.42;;;;;;;25.71;54.99;98849.19;5074106;28;20524;-67
2023/07/26 01:57:22;;;;;;;5.93;2.42;;;;;;;25.69;54.68;98861.16;5074336;28;20087;-67
2023/07/26 01:59:50;;;;;;;4.13;2.50;;;;;;;25.68;55.03;98875.03;5073823;28;20087;-67
2023/07/26 02:02:18;;;;;;;3.78;2.38;;;;;;;25.68;54.67;98881.34;5074096;28;20452;-67
2023/07/26 02:04:48;;;;;;;4.03;2.53;;;;;;;25.66;54.56;98877.97;5073993;28;20044;-67
2023/07/26 02:07:16;;;;;;;5.63;2.70;;;;;;;25.65;54.57;98876.28;5074028;28;20067;-67
2023/07/26 02:09:44;;;;;;;4.72;2.60;;;;;;;25.64;54.64;98884.72;5073862;28;20056;-67
2023/07/26 02:12:13;;;;;;;4.50;2.78;;;;;;;25.63;54.80;98878.41;5073524;28;20504;-67
2023/07/26 02:14:42;;;;;;;3.83;2.30;;;;;;;25.62;54.70;98884.94;5073914;28;20049;-67
2023/07/26 02:17:11;;;;;;;3.78;2.38;;;;;;;25.61;54.78;98890.63;5073808;28;20123;-67
2023/07/26 02:19:39;;;;;;;3.97;2.40;;;;;;;25.60;54.65;98889.78;5073745;28;20055;-67
2023/07/26 02:22:07;;;;;;;4.82;2.28;;;;;;;25.57;54.77;98884.75;5073532;28;20053;-67
2023/07/26 02:24:35;;;;;;;4.10;2.30;;;;;;;25.57;54.70;98890.22;5073609;28;20045;-65
2023/07/26 02:27:04;;;;;;;3.67;2.30;;;;;;;25.55;54.51;98895.06;5073385;28;20063;-66
2023/07/26 02:29:34;;;;;;;4.30;2.40;;;;;;;25.53;54.57;98893.63;5073604;28;20094;-67
2023/07/26 02:32:04;;;;;;;4.38;2.28;;;;;;;25.52;54.44;98895.53;5073182;28;20044;-67
2023/07/26 02:34:33;;;;;;;4.22;2.30;;;;;;;25.48;54.20;98907.97;5073459;28;20053;-66
2023/07/26 02:37:01;;;;;;;4.35;2.25;;;;;;;25.49;54.57;98893.25;5073434;28;20044;-67
2023/07/26 02:39:30;;;;;;;4.07;2.10;;;;;;;25.48;54.40;98902.50;5073132;28;20044;-67
2023/07/26 02:41:58;;;;;;;4.10;2.40;;;;;;;25.49;54.47;98897.88;5073111;28;20051;-67
2023/07/26 02:44:26;;;;;;;4.25;2.30;;;;;;;25.46;54.31;98904.59;5073243;28;20409;-67
2023/07/26 02:46:54;;;;;;;4.28;2.30;;;;;;;25.46;54.36;98890.94;5073023;28;20047;-67
2023/07/26 02:49:24;;;;;;;4.55;2.38;;;;;;;25.44;54.19;98895.78;5072979;28;20088;-67
2023/07/26 02:51:52;;;;;;;4.13;2.50;;;;;;;25.43;54.30;98905.03;5072930;28;20070;-67
2023/07/26 02:54:21;;;;;;;3.60;2.35;;;;;;;25.43;54.37;98904.19;5072744;28;20163;-68
2023/07/26 02:56:49;;;;;;;4.30;2.42;;;;;;;25.41;54.42;98901.69;5073165;28;20041;-67
2023/07/26 02:59:19;;;;;;;4.20;2.17;;;;;;;25.39;54.47;98906.56;5072990;28;20088;-67
2023/07/26 03:01:47;;;;;;;4.20;2.38;;;;;;;25.38;54.41;98913.91;5072859;28;20049;-67
2023/07/26 03:04:16;;;;;;;3.60;2.13;;;;;;;25.39;54.50;98903.81;5072793;28;20044;-66
2023/07/26 03:06:45;;;;;;;3.58;2.20;;;;;;;25.39;54.56;98909.28;5072523;28;20135;-68
2023/07/26 03:09:13;;;;;;;4.32;2.53;;;;;;;25.38;54.49;98902.97;5072795;28;20045;-66
2023/07/26 03:11:41;;;;;;;5.43;2.47;;;;;;;25.38;54.49;98896.66;5032669;28;20503;-67
2023/07/26 03:14:10;;;;;;;3.95;2.42;;;;;;;25.38;54.76;98885.75;5032653;28;20140;-66
2023/07/26 03:16:38;;;;;;;4.75;2.80;;;;;;;25.36;54.39;98907.81;5032034;28;20467;-67
2023/07/26 03:19:06;;;;;;;4.05;2.45;;;;;;;25.35;55.00;98906.13;5032482;28;20046;-67
2023/07/26 03:21:35;;;;;;;5.20;2.78;;;;;;;25.36;54.63;98906.97;5032315;28;20119;-66
2023/07/26 03:24:05;;;;;;;4.20;2.50;;;;;;;25.36;54.58;98896.06;5032672;28;20085;-66
2023/07/26 03:26:33;;;;;;;4.68;2.80;;;;;;;25.36;54.71;98893.31;5032506;28;20136;-65
2023/07/26 03:29:02;;;;;;;3.75;2.28;;;;;;;25.32;55.01;98898.41;5032331;28;20053;-68
2023/07/26 03:31:30;;;;;;;6.53;2.80;;;;;;;25.33;54.81;98905.53;5032321;28;20546;-67
2023/07/26 03:33:58;;;;;;;4.60;2.42;;;;;;;25.32;54.66;98900.28;5032276;28;20065;-66
2023/07/26 03:36:27;;;;;;;3.90;2.50;;;;;;;25.32;54.79;98913.94;5032607;28;20041;-67
2023/07/26 03:38:55;;;;;;;4.78;3.17;;;;;;;25.32;55.09;98913.94;5032314;28;20053;-68
2023/07/26 03:41:25;;;;;;;4.90;2.60;;;;;;;25.31;54.75;98920.44;5032408;28;20050;-68
2023/07/26 03:43:53;;;;;;;5.97;2.60;;;;;;;25.26;55.03;98915.63;5030718;28;20100;-67
2023/07/26 03:46:21;;;;;;;4.47;2.80;;;;;;;25.25;54.98;98918.59;5032063;28;20042;-67
2023/07/26 03:48:49;;;;;;;4.28;2.70;;;;;;;25.27;55.18;98932.84;5032355;28;20077;-68
2023/07/26 03:51:19;;;;;;;3.92;2.63;;;;;;;25.25;54.83;98943.16;5032088;28;20089;-67
2023/07/26 03:53:47;;;;;;;5.72;2.78;;;;;;;25.26;55.08;98953.00;5032023;28;20065;-68
2023/07/26 03:56:15;;;;;;;6.05;3.10;;;;;;;25.25;55.21;98954.91;5032075;28;20411;-67
2023/07/26 03:58:46;;;;;;;4.10;2.60;;;;;;;25.24;55.14;98952.38;5032026;28;20064;-67
2023/07/26 04:01:14;;;;;;;4.85;2.75;;;;;;;25.23;54.99;98956.19;5051593;28;20045;-67
2023/07/26 04:03:43;;;;;;;5.57;2.58;;;;;;;25.21;55.43;98961.03;5051837;28;20129;-67
2023/07/26 04:06:15;;;;;;;7.40;2.80;;;;;;;25.17;54.93;98951.59;5051761;28;20045;-67
2023/07/26 04:08:43;;;;;;;4.85;2.88;;;;;;;25.15;55.28;98951.81;5051655;28;20048;-67
2023/07/26 04:11:12;;;;;;;5.05;2.55;;;;;;;25.15;55.29;98961.88;5083471;28;20113;-67
2023/07/26 04:13:40;;;;;;;4.30;2.70;;;;;;;25.14;55.32;98971.13;5091540;28;20052;-67
2023/07/26 04:16:17;;;;;;;4.40;2.45;;;;;;;25.11;55.47;98967.78;5091823;28;20044;-67
2023/07/26 04:18:46;;;;;;;4.22;2.55;;;;;;;25.10;55.46;98973.47;5091620;28;20093;-68
2023/07/26 04:21:15;;;;;;;6.35;2.58;;;;;;;25.09;55.31;98978.09;5091689;28;20052;-67
2023/07/26 04:23:44;;;;;;;5.13;2.70;;;;;;;25.09;55.53;98983.53;5091525;28;20127;-67
2023/07/26 04:26:13;;;;;;;4.68;2.78;;;;;;;25.08;55.11;98992.75;5091401;28;20472;-67
2023/07/26 04:28:41;;;;;;;3.63;2.38;;;;;;;25.06;55.02;99004.94;5090183;28;20048;-67
2023/07/26 04:31:10;;;;;;;5.03;2.30;;;;;;;25.06;55.21;99013.97;5091801;28;20054;-66
2023/07/26 04:33:40;;;;;;;3.90;2.40;;;;;;;25.05;54.98;99012.28;5091518;28;20059;-67
2023/07/26 04:36:08;;;;;;;5.35;2.28;;;;;;;25.04;54.78;99005.16;5091537;28;20064;-66
2023/07/26 04:38:37;;;;;;;6.10;2.60;;;;;;;25.04;55.01;98998.88;5091308;28;20055;-67
2023/07/26 04:41:06;;;;;;;3.97;2.30;;;;;;;25.03;54.62;98992.56;5091295;28;20056;-67
2023/07/26 04:43:34;;;;;;;3.50;2.00;;;;;;;25.00;54.96;98990.25;5091518;28;20135;-66
2023/07/26 04:46:02;;;;;;;4.38;2.15;;;;;;;25.00;54.61;98992.97;5091729;28;20063;-67
2023/07/26 04:48:31;;;;;;;3.97;2.00;;;;;;;24.98;54.62;98989.59;5091429;28;20044;-67
2023/07/26 04:51:02;;;;;;;3.67;2.20;;;;;;;24.97;54.38;98990.66;5091124;28;20413;-67
2023/07/26 04:53:30;;;;;;;3.30;1.80;;;;;;;24.96;54.31;98990.88;5091142;28;20079;-66
2023/07/26 04:55:58;;;;;;;4.28;2.08;;;;;;;24.95;53.97;98990.06;5091440;28;20126;-66
2023/07/26 04:58:27;;;;;;;3.70;2.00;;;;;;;24.95;54.11;98989.22;5091335;28;20044;-67
2023/07/26 05:00:55;;;;;;;4.28;1.88;;;;;;;24.94;54.02;98993.84;5091126;28;20162;-67
2023/07/26 05:03:23;;;;;;;3.83;1.92;;;;;;;24.94;53.56;98987.53;5091091;28;20054;-67
2023/07/26 05:05:52;;;;;;;2.58;1.75;;;;;;;24.92;53.37;99001.41;5091217;28;20044;-67
2023/07/26 05:08:22;;;;;;;3.83;2.00;;;;;;;24.93;53.49;98999.50;5091459;28;20044;-66
2023/07/26 05:10:51;;;;;;;5.60;1.90;;;;;;;24.92;53.56;98995.94;5091692;28;20105;-66
2023/07/26 05:13:20;;;;;;;4.80;2.25;;;;;;;24.91;53.49;98988.81;5091323;28;20293;-65
2023/07/26 05:15:48;;;;;;;4.18;1.70;;;;;;;24.91;53.06;98991.53;5091443;28;20040;-66
2023/07/26 05:18:16;;;;;;;2.92;1.73;;;;;;;24.90;53.13;98991.72;5091111;28;20092;-65
2023/07/26 05:20:45;;;;;;;3.90;1.85;;;;;;;24.89;53.06;98990.91;5090797;28;20481;-65
2023/07/26 05:23:13;;;;;;;3.38;1.90;;;;;;;24.89;52.98;99000.97;5091135;28;20067;-65
2023/07/26 05:25:43;;;;;;;3.40;1.90;;;;;;;24.87;52.37;98987.56;5091097;28;20083;-67
2023/07/26 05:28:11;;;;;;;5.03;1.75;;;;;;;24.89;52.51;98999.09;5091190;28;20044;-66
2023/07/26 05:30:40;;;;;;;3.00;1.75;;;;;;;24.85;52.39;99003.31;5090974;28;20044;-65
2023/07/26 05:33:09;;;;;;;3.47;2.03;;;;;;;24.86;52.59;99001.41;5090952;28;20408;-66
2023/07/26 05:35:39;;;;;;;2.53;1.58;;;;;;;24.85;52.49;99008.75;5091036;28;20052;-67
2023/07/26 05:38:07;;;;;;;3.97;1.77;;;;;;;24.83;52.28;99011.69;5091001;28;20056;-66
2023/07/26 05:40:36;;;;;;;3.63;1.70;;;;;;;24.83;51.97;99010.88;5092726;28;20131;-67
2023/07/26 05:43:06;;;;;;;2.38;1.35;;;;;;;24.81;52.01;99010.25;5094295;28;20048;-65
2023/07/26 05:45:34;;;;;;;2.70;1.40;;;;;;;24.80;51.96;99009.41;5094286;28;20496;-65
2023/07/26 05:48:02;;;;;;;3.83;1.40;;;;;;;24.79;52.04;99004.16;5094395;28;20131;-68
2023/07/26 05:50:31;;;;;;;3.80;1.52;;;;;;;24.78;52.32;99005.19;5094653;28;20048;-66
2023/07/26 05:52:59;;;;;;;3.15;1.45;;;;;;;24.79;51.95;99007.72;5094474;28;20086;-65
2023/07/26 05:55:27;;;;;;;4.35;1.75;;;;;;;24.80;51.96;99027.63;5094352;28;20139;-65
2023/07/26 05:57:55;;;;;;;3.00;1.42;;;;;;;24.80;52.01;99024.91;5094130;28;20055;-67
2023/07/26 06:00:25;;;;;;;5.53;1.58;;;;;;;24.80;51.79;99046.72;5094156;28;20642;-67
2023/07/26 06:02:53;;;;;;;2.83;1.40;;;;;;;24.79;51.82;99045.88;5094508;28;20123;-67
2023/07/26 06:05:21;;;;;;;3.22;1.50;;;;;;;24.78;52.11;99041.47;5094185;28;20046;-65
2023/07/26 06:07:50;;;;;;;2.90;1.40;;;;;;;24.77;51.85;99028.06;5094009;28;20050;-66
2023/07/26 06:10:19;;;;;;;3.35;1.60;;;;;;;24.76;51.76;99027.22;5094112;28;20512;-68
2023/07/26 06:12:49;;;;;;;2.80;1.52;;;;;;;24.75;51.57;99038.38;5094158;28;20167;-67
2023/07/26 06:15:18;;;;;;;2.40;1.40;;;;;;;24.73;51.78;99041.31;5094118;28;20071;-67
2023/07/26 06:17:47;;;;;;;2.65;1.30;;;;;;;24.72;51.91;99044.25;5093943;28;20147;-66
2023/07/26 06:20:15;;;;;;;2.03;1.10;;;;;;;24.69;51.77;99041.94;5093815;28;20040;-70
2023/07/26 06:22:44;;;;;;;3.13;1.30;;;;;;;24.68;51.76;99045.72;5093819;28;20838;-66
2023/07/26 06:25:12;;;;;;;1.98;1.30;;;;;;;24.68;51.58;99040.25;5093699;28;20050;-68
2023/07/26 06:27:40;;;;;;;2.78;1.40;;;;;;;24.67;51.47;99033.13;5093830;28;20048;-67
2023/07/26 06:30:09;;;;;;;4.78;1.40;;;;;;;24.67;51.75;99047.59;5093944;28;20135;-66
2023/07/26 06:32:40;;;;;;;2.93;1.40;;;;;;;24.66;51.69;99040.47;5093712;28;20048;-68
2023/07/26 06:35:11;;;;;;;3.53;1.27;;;;;;;24.65;51.59;99040.69;5093422;28;20142;-65
2023/07/26 06:37:39;;;;;;;3.00;1.30;;;;;;;24.65;51.60;99043.41;5092793;28;20063;-67
2023/07/26 06:40:08;;;;;;;2.80;1.30;;;;;;;24.66;51.85;99040.47;5091935;28;20131;-66
2023/07/26 06:42:37;;;;;;;3.50;1.60;;;;;;;24.67;51.83;99047.59;5093274;28;20477;-67
2023/07/26 06:45:08;;;;;;;4.18;1.45;;;;;;;24.68;51.97;99048.44;5092700;28;20232;-66
2023/07/26 06:47:37;;;;;;;3.22;1.52;;;;;;;24.69;52.04;99047.38;5093052;28;20040;-67
2023/07/26 06:50:06;;;;;;;3.20;1.40;;;;;;;24.69;51.91;99064.56;5093107;28;20111;-67
2023/07/26 06:52:37;;;;;;;3.63;1.60;;;;;;;24.68;52.17;99070.25;5092126;28;20503;-67
2023/07/26 06:55:06;;;;;;;3.17;1.50;;;;;;;24.68;52.39;99072.97;5093016;28;20485;-66
2023/07/26 06:57:34;;;;;;;3.90;1.60;;;;;;;24.70;52.04;99084.50;5093010;28;20040;-66
2023/07/26 07:00:06;;;;;;;5.13;1.50;;;;;;;24.71;52.37;99089.75;5093184;28;20044;-66
2023/07/26 07:02:34;;;;;;;4.00;1.52;;;;;;;24.71;52.06;99097.09;5093051;28;20217;-67
2023/07/26 07:05:02;;;;;;;2.58;1.40;;;;;;;24.71;52.29;99106.13;5092895;28;20127;-67
2023/07/26 07:07:31;;;;;;;4.07;1.52;;;;;;;24.72;52.48;99098.78;5092976;28;20105;-66
2023/07/26 07:10:00;;;;;;;2.80;1.52;;;;;;;24.73;52.41;99095.84;5092922;28;20071;-67
2023/07/26 07:12:29;;;;;;;2.28;1.48;;;;;;;24.72;52.15;99101.50;5092835;28;20111;-67
2023/07/26 07:14:57;;;;;;;4.57;1.50;;;;;;;24.72;52.67;99106.97;5092626;28;20113;-67
2023/07/26 07:17:25;;;;;;;3.20;1.67;;;;;;;24.71;52.43;99110.75;5092645;28;20386;-67
2023/07/26 07:19:54;;;;;;;3.03;1.45;;;;;;;24.71;52.48;99114.31;5092550;28;20048;-66
2023/07/26 07:22:22;;;;;;;4.25;1.77;;;;;;;24.72;52.51;99106.97;5092570;28;20044;-67
2023/07/26 07:24:50;;;;;;;3.10;1.45;;;;;;;24.71;52.43;99113.47;5092646;28;20054;-67
2023/07/26 07:27:21;;;;;;;2.90;1.40;;;;;;;24.71;52.79;99121.66;5092376;28;20545;-66
2023/07/26 07:29:49;;;;;;;5.13;1.95;;;;;;;24.71;52.43;99127.09;5092893;28;20044;-67
2023/07/26 07:32:18;;;;;;;3.05;1.48;;;;;;;24.69;52.48;99134.63;5092177;28;20054;-67
2023/07/26 07:34:50;;;;;;;3.30;1.58;;;;;;;24.65;52.48;99131.50;5092463;28;20508;-67
2023/07/26 07:37:18;;;;;;;2.35;1.17;;;;;;;24.64;52.72;99140.72;5092369;28;20079;-66
2023/07/26 07:39:46;;;;;;;3.70;1.60;;;;;;;24.64;52.76;99145.34;5092392;28;20080;-66
2023/07/26 07:42:14;;;;;;;3.95;1.60;;;;;;;24.62;52.88;99148.28;5092416;28;20101;-67
2023/07/26 07:44:44;;;;;;;3.53;1.50;;;;;;;24.62;52.58;99152.91;5092636;28;20052;-66
2023/07/26 07:47:12;;;;;;;3.63;1.60;;;;;;;24.63;52.69;99165.47;5092574;28;20048;-67
2023/07/26 07:49:44;;;;;;;3.20;1.58;;;;;;;24.62;52.62;99161.91;5092066;28;20493;-67
2023/07/26 07:52:12;;;;;;;3.75;1.70;;;;;;;24.64;52.90;99168.00;5092213;28;20094;-67
2023/07/26 07:54:40;;;;;;;3.10;1.25;;;;;;;24.66;52.70;99175.94;5092165;28;20059;-66
2023/07/26 07:57:11;;;;;;;2.53;1.30;;;;;;;24.66;52.67;99173.22;5091977;28;20073;-67
2023/07/26 07:59:39;;;;;;;3.78;1.40;;;;;;;24.67;52.68;99178.47;5091834;28;20194;-66
2023/07/26 08:02:09;;;;;;;4.00;1.48;;;;;;;24.71;52.81;99184.34;5091736;28;20075;-67
2023/07/26 08:04:38;;;;;;;3.33;1.45;;;;;;;24.71;52.92;99184.34;5091884;28;20048;-68
2023/07/26 08:07:06;;;;;;;3.83;1.52;;;;;;;24.72;52.95;99186.03;5091813;28;20052;-66
2023/07/26 08:09:35;;;;;;;4.70;1.90;;;;;;;24.71;52.88;99189.81;5091553;28;20489;-66
2023/07/26 08:12:04;;;;;;;4.07;1.55;;;;;;;24.71;52.83;99195.25;5091603;28;20052;-67
2023/07/26 08:14:32;;;;;;;5.00;1.73;;;;;;;24.71;52.65;99198.00;5091851;28;20078;-67
2023/07/26 08:17:00;;;;;;;3.95;1.42;;;;;;;24.71;52.68;99204.28;5091665;28;20147;-66
2023/07/26 08:19:30;;;;;;;2.88;1.27;;;;;;;24.71;52.85;99196.09;5091632;28;20048;-67
2023/07/26 08:21:58;;;;;;;2.88;1.50;;;;;;;24.70;53.05;99194.41;5091547;28;20131;-66
2023/07/26 08:24:27;;;;;;;3.67;1.60;;;;;;;24.68;52.95;99192.94;5091471;28;20044;-65
2023/07/26 08:26:56;;;;;;;4.15;1.60;;;;;;;24.67;52.98;99188.53;5091777;28;20044;-66
2023/07/26 08:29:24;;;;;;;3.78;1.38;;;;;;;24.67;53.05;99185.81;5091673;28;20043;-66
2023/07/26 08:31:53;;;;;;;3.42;1.50;;;;;;;24.67;52.85;99189.38;5091754;28;20048;-66
2023/07/26 08:34:21;;;;;;;2.78;1.50;;;;;;;24.69;53.05;99189.16;5091595;28;20413;-65
2023/07/26 08:36:51;;;;;;;3.60;1.60;;;;;;;24.68;53.00;99190.22;5091782;28;20139;-66
2023/07/26 08:39:19;;;;;;;3.45;1.50;;;;;;;24.70;53.13;99212.66;5091688;28;20048;-66
2023/07/26 08:42:02;;;;;;;3.85;1.85;;;;;;;24.67;53.16;99199.44;5091501;28;20054;-66
2023/07/26 08:44:32;;;;;;;4.95;1.50;;;;;;;24.66;53.13;99203.22;5091359;28;20070;-66
2023/07/26 08:47:01;;;;;;;3.22;1.70;;;;;;;24.66;53.06;99208.66;5091339;28;20394;-66
2023/07/26 08:49:30;;;;;;;4.15;1.70;;;;;;;24.66;53.02;99216.84;5091280;28;20131;-65
2023/07/26 08:52:03;;;;;;;4.22;1.60;;;;;;;24.66;53.33;99214.13;5091112;28;20070;-65
2023/07/26 08:54:32;;;;;;;2.10;1.33;;;;;;;24.66;53.29;99225.03;5091186;28;20047;-66
2023/07/26 08:57:00;;;;;;;2.17;1.40;;;;;;;24.67;53.35;99223.97;5091121;28;20475;-66
2023/07/26 08:59:29;;;;;;;3.92;1.70;;;;;;;24.66;53.07;99235.94;5091105;28;20047;-66
2023/07/26 09:01:58;;;;;;;3.53;1.63;;;;;;;24.67;53.26;99243.06;5091055;28;20062;-66
2023/07/26 09:04:32;;;;;;;3.92;1.67;;;;;;;24.67;53.09;99243.06;5089914;28;20052;-67
2023/07/26 09:07:03;;;;;;;3.63;1.73;;;;;;;24.69;53.32;99246.41;5091073;28;20050;-67
2023/07/26 09:09:32;;;;;;;2.78;1.60;;;;;;;24.68;53.39;99258.38;5091077;28;20044;-64
2023/07/26 09:12:02;;;;;;;2.80;1.40;;;;;;;24.67;53.28;99257.53;5091030;28;20044;-66
2023/07/26 09:14:32;;;;;;;4.43;1.88;;;;;;;24.67;53.51;99253.97;5091450;28;20052;-65
2023/07/26 09:17:02;;;;;;;3.90;1.70;;;;;;;24.66;53.46;99249.56;5094874;28;20577;-65
2023/07/26 09:19:31;;;;;;;3.90;1.77;;;;;;;24.65;53.49;99261.53;5095085;28;20048;-65
2023/07/26 09:22:04;;;;;;;3.65;1.50;;;;;;;24.63;53.74;99255.44;5094774;28;20052;-66
2023/07/26 09:24:35;;;;;;;2.88;1.60;;;;;;;24.61;53.98;99272.00;5094817;28;20040;-66
2023/07/26 09:27:04;;;;;;;4.38;1.83;;;;;;;24.60;53.86;99267.56;5094813;28;20055;-66
2023/07/26 09:29:37;;;;;;;4.68;1.80;;;;;;;24.57;53.64;99269.88;5094686;28;20404;-66
2023/07/26 09:32:06;;;;;;;;;;;;;;;24.54;53.72;99263.81;5095471;28;20040;-67
2023/07/26 09:34:34;;;;;;;3.40;1.60;;;;;;;24.53;53.69;99259.41;5094824;28;19942;-67
2023/07/26 09:37:05;;;;;;;3.05;1.42;;;;;;;24.52;53.65;99246.81;5094421;28;20150;-67
2023/07/26 09:39:34;;;;;;;3.72;1.60;;;;;;;24.52;54.07;99246.00;5094552;28;20119;-66
2023/07/26 09:42:06;;;;;;;3.38;1.50;;;;;;;24.53;53.90;99243.06;5094412;28;20401;-65
2023/07/26 09:44:36;;;;;;;3.35;1.50;;;;;;;24.53;53.94;99237.59;5094497;28;20048;-66
2023/07/26 09:47:05;;;;;;;3.55;1.65;;;;;;;24.53;53.80;99243.06;5094391;28;20051;-65
2023/07/26 09:49:34;;;;;;;3.35;1.30;;;;;;;24.52;53.86;99252.28;5094608;28;20119;-65
2023/07/26 09:52:15;;;;;;;3.22;1.55;;;;;;;24.54;54.13;99254.78;5094289;28;20079;-65
2023/07/26 09:54:44;;;;;;;3.08;1.35;;;;;;;24.54;54.05;99236.56;5094302;28;20543;-65
2023/07/26 09:57:14;;;;;;;3.25;1.30;;;;;;;24.54;54.18;99233.81;5094282;28;20076;-66
2023/07/26 09:59:45;;;;;;;4.70;1.60;;;;;;;24.57;54.04;99237.19;5094150;28;20048;-66
2023/07/26 10:02:14;;;;;;;2.47;1.40;;;;;;;24.58;54.02;99241.56;5094271;28;20044;-66
2023/07/26 10:04:49;;;;;;;3.15;1.50;;;;;;;24.61;54.36;99243.88;5094033;28;20044;-66
2023/07/26 10:07:20;;;;;;;3.90;1.52;;;;;;;24.63;54.29;99241.81;5094140;28;20055;-66
2023/07/26 10:09:49;;;;;;;4.70;1.60;;;;;;;24.65;54.56;99258.78;5094049;28;20400;-64
2023/07/26 10:12:24;;;;;;;3.13;1.65;;;;;;;24.64;54.67;99248.94;5094382;28;20063;-66
2023/07/26 10:14:56;;;;;;;3.53;1.45;;;;;;;24.65;54.42;99256.06;5093891;28;20052;-67
2023/07/26 10:17:26;;;;;;;4.10;1.58;;;;;;;24.64;54.65;99248.94;5093762;28;20044;-67
2023/07/26 10:19:55;;;;;;;3.40;1.48;;;;;;;24.63;54.27;99253.56;5094116;28;20048;-66
2023/07/26 10:22:27;;;;;;;2.40;1.30;;;;;;;24.64;54.49;99273.47;5094236;28;20044;-65
2023/07/26 10:24:56;;;;;;;2.35;1.33;;;;;;;24.66;54.39;99276.81;5094237;28;20044;-65
2023/07/26 10:27:25;;;;;;;2.78;1.55;;;;;;;24.65;54.38;99272.44;5092446;28;20551;-65
2023/07/26 10:29:53;;;;;;;3.53;1.42;;;;;;;24.66;54.31;99280.41;5093593;28;20052;-66
2023/07/26 10:32:22;;;;;;;2.63;1.30;;;;;;;24.69;54.35;99287.31;5093796;28;20048;-67
2023/07/26 10:34:55;;;;;;;3.30;1.63;;;;;;;24.69;54.17;99276.41;5093646;28;20048;-65
2023/07/26 10:37:32;;;;;;;3.38;1.20;;;;;;;24.71;54.15;99277.91;5093507;28;20101;-65
2023/07/26 10:40:05;;;;;;;2.17;1.20;;;;;;;24.72;54.34;99279.56;5093517;28;20140;-66
2023/07/26 10:42:34;;;;;;;3.25;1.55;;;;;;;24.74;54.20;99290.28;5093214;28;20059;-66
2023/07/26 10:45:03;;;;;;;2.45;1.17;;;;;;;24.75;53.97;99291.94;5093428;28;20115;-66
2023/07/26 10:47:32;;;;;;;3.00;1.33;;;;;;;24.74;54.01;99288.38;5093386;28;20475;-66
2023/07/26 10:50:06;;;;;;;3.90;1.73;;;;;;;24.74;54.03;99279.38;5093415;28;20044;-66
2023/07/26 10:52:37;;;;;;;2.97;1.42;;;;;;;24.75;54.23;99281.03;5093431;28;20044;-65
2023/07/26 10:55:22;;;;;;;2.45;1.48;;;;;;;24.75;53.92;99289.22;5093067;28;20450;-65
2023/07/26 10:57:51;;;;;;;2.90;1.25;;;;;;;24.76;53.79;99301.81;5093142;28;20052;-65
2023/07/26 11:00:23;;;;;;;2.15;1.20;;;;;;;24.77;53.96;99292.56;5093367;28;20041;-67
2023/07/26 11:03:00;;;;;;;2.03;1.23;;;;;;;24.75;53.92;99290.06;5093150;28;20044;-66
2023/07/26 11:05:29;;;;;;;2.78;1.20;;;;;;;24.78;53.88;99294.25;5092911;28;20039;-66
2023/07/26 11:08:01;;;;;;;2.72;1.30;;;;;;;24.77;53.98;99292.56;5092978;28;20040;-66
2023/07/26 11:10:31;;;;;;;2.77;1.50;;;;;;;24.78;54.04;99284.19;5092927;28;20059;-66
2023/07/26 11:13:27;;;;;;;2.05;1.20;;;;;;;24.78;54.02;99289.63;5093052;28;20568;-66
2023/07/26 11:15:55;;;;;;;2.63;1.30;;;;;;;24.79;53.76;99280.41;5091473;28;20048;-66
2023/07/26 11:18:44;;;;;;;2.85;1.38;;;;;;;24.79;53.53;99296.78;5092577;28;20051;-65
2023/07/26 11:21:16;;;;;;;2.95;1.45;;;;;;;24.78;54.01;99311.47;5092856;28;20140;-64
2023/07/26 11:23:46;;;;;;;1.70;1.30;;;;;;;24.79;54.01;99313.13;5092963;28;20123;-67
2023/07/26 11:26:15;;;;;;;1.70;1.20;;;;;;;24.82;53.73;99306.44;5092464;28;20056;-66
2023/07/26 11:28:43;;;;;;;1.83;1.17;;;;;;;24.82;53.50;99318.19;5092507;28;20048;-67
2023/07/26 11:31:19;;;;;;;2.83;1.40;;;;;;;24.83;53.67;99319.03;5092704;28;20460;-65
2023/07/26 11:33:48;;;;;;;3.45;1.30;;;;;;;24.83;53.57;99314.41;5092497;28;20466;-66
2023/07/26 11:36:20;;;;;;;2.28;1.27;;;;;;;24.82;53.31;99306.44;5092454;28;20051;-66
2023/07/26 11:38:50;;;;;;;1.88;1.08;;;;;;;24.82;53.56;99306.44;5091717;28;20048;-66
2023/07/26 11:41:18;;;;;;;1.70;1.08;;;;;;;24.82;53.47;99304.56;5092145;28;20052;-66
2023/07/26 11:43:47;;;;;;;2.65;1.30;;;;;;;24.84;53.15;99304.34;5092315;28;20404;-67